Monte Rio, CA (95462)

1:18 PM PDT on August 26, 2016 (GMT -0700)
The Terraces, Monte Rio | | Change Station

Elev 36 ft 38.47 °N, 123.01 °W | Updated 25 seconds ago

Mostly Cloudy
Mostly Cloudy
63.2 °F
Feels Like 63.2 °F
N
0.0
Wind Variable Wind from South
Gusts 1.0 mph

Today
High -- | Low -- °F
--% Chance of Precip.
Yesterday
High -- | Low -- °F
Precip. -- in
Pressure 29.94 in
Visibility 10.0 miles
Clouds Mostly Cloudy 2300 ft
Dew Point 59 °F
Humidity 86%
Rainfall 0.00 in
Snow Depth Not available.
6:36 AM 7:49 PM
Waning Crescent, 31% visible
SPECI KSTS 262010Z 25006KT 10SM BKN023 21/13 A2994 RMK AO2 T02060133
Pressure 29.94 in
Visibility 10.0 miles
Clouds Mostly Cloudy 2300 ft
Dew Point 59 °F
Humidity 86%
Rainfall 0.00 in
Snow Depth Not available.
6:36 AM 7:49 PM
Waning Crescent, 31% visible
SPECI KSTS 262010Z 25006KT 10SM BKN023 21/13 A2994 RMK AO2 T02060133

10-Day Weather Forecast

Almanac

Astronomy

Aug. 26, 2016 Rise Set
Actual Time
Civil Twilight
Nautical Twilight
Astronomical Twilight
Moon
Length of Visible Light
Length of Day
Tomorrow will be .
, % of the Moon is Illuminated

Today's Extremes

State Highs State Lows

Community

WunderPhotos

Upload Photos

1,935,192 photos uploaded!

WunderBlog® & News

Nearby

Air Quality

  Air Quality AQ Index Pollutant
Not available.

Snow Depth

Station Depth Elevation

Earthquake Activity

City Distance Mag. Time & Date
Minimum magnitude displayed is 2.5.

Coastal Water Temperatures

Place Temperature

Stations

Nearby Weather Stations

Station Location Temp. Windchill Dew Point Humidity Wind Precip. Elev Updated Type
                   

Watches & Warnings

There are currently no watches in effect.